Time;durP1;ratioP1;P1;durP2;ratioP2;P2;SDS_P1;SDS_P2;PMS_P1;PMS_P2;Temp;Humidity;BMP_temperature;BMP_pressure;BME280_temperature;BME280_humidity;BME280_pressure;Samples;Min_cycle;Max_cycle;Signal;HPM_P1;HPM_P2
2022/08/16 00:00:57;;;;;;;22.00;19.75;;;19.80;99.90;;;;;;7392767;19;20015;-79
2022/08/16 00:03:23;;;;;;;24.35;21.50;;;19.80;99.90;;;;;;7391980;19;20040;-79
2022/08/16 00:05:49;;;;;;;24.10;21.55;;;19.80;99.90;;;;;;7392818;19;20351;-80
2022/08/16 00:08:15;;;;;;;26.10;23.30;;;19.80;99.90;;;;;;7393203;19;20013;-80
2022/08/16 00:10:41;;;;;;;24.95;22.35;;;19.70;99.90;;;;;;7391551;19;20031;-80
2022/08/16 00:13:09;;;;;;;25.77;23.08;;;19.70;99.90;;;;;;7392785;19;20478;-80
2022/08/16 00:15:46;;;;;;;25.08;22.58;;;19.70;99.90;;;;;;7392558;19;20018;-80
2022/08/16 00:18:14;;;;;;;26.15;23.55;;;19.70;99.90;;;;;;7392668;19;20011;-80
2022/08/16 00:20:43;;;;;;;25.77;23.00;;;19.70;99.90;;;;;;7392950;19;20006;-80
2022/08/16 00:23:09;;;;;;;29.77;24.77;;;19.70;99.90;;;;;;7389532;19;20010;-80
2022/08/16 00:25:36;;;;;;;27.15;24.27;;;19.70;99.90;;;;;;7391308;19;20030;-80
2022/08/16 00:28:02;;;;;;;27.15;24.10;;;19.70;99.90;;;;;;7391144;19;20011;-80
2022/08/16 00:30:28;;;;;;;25.92;23.02;;;19.70;99.90;;;;;;7392468;19;20408;-80
2022/08/16 00:32:56;;;;;;;24.95;22.52;;;19.80;99.90;;;;;;7390650;19;20080;-80
2022/08/16 00:35:31;;;;;;;25.67;23.05;;;19.80;99.90;;;;;;7390241;19;20483;-79
2022/08/16 00:37:58;;;;;;;27.02;23.98;;;19.80;99.90;;;;;;7394439;19;20014;-80
2022/08/16 00:40:35;;;;;;;27.02;24.23;;;19.90;99.90;;;;;;7392044;19;20494;-80
2022/08/16 00:43:07;;;;;;;29.58;26.48;;;19.80;99.90;;;;;;7391192;19;20029;-80
2022/08/16 00:51:56;;;;;;;27.70;24.90;;;19.70;99.90;;;;;;7386384;19;20507;-80
2022/08/16 00:54:26;;;;;;;29.35;26.27;;;19.60;99.90;;;;;;7393793;19;20014;-80
2022/08/16 00:56:53;;;;;;;29.33;26.33;;;19.60;99.90;;;;;;7396219;19;20014;-80
2022/08/16 00:59:22;;;;;;;30.08;26.88;;;19.60;99.90;;;;;;7394576;19;20026;-80
2022/08/16 01:01:48;;;;;;;30.58;27.30;;;19.60;99.90;;;;;;7396398;19;20010;-80
2022/08/16 01:04:22;;;;;;;32.22;28.83;;;19.60;99.90;;;;;;7396042;19;20369;-80
2022/08/16 01:06:49;;;;;;;32.92;29.42;;;19.50;99.90;;;;;;7398575;19;20095;-80
2022/08/16 01:09:17;;;;;;;31.67;28.40;;;19.50;99.90;;;;;;7398804;19;20479;-80
2022/08/16 01:11:44;;;;;;;31.50;28.17;;;19.50;99.90;;;;;;7401917;19;20357;-80
2022/08/16 01:14:23;;;;;;;29.35;26.45;;;19.50;99.90;;;;;;7397026;19;20025;-80
2022/08/16 01:16:50;;;;;;;32.47;28.98;;;19.50;99.90;;;;;;7398635;19;20006;-80
2022/08/16 01:19:36;;;;;;;31.65;27.45;;;19.60;99.90;;;;;;7398026;19;20030;-80
2022/08/16 01:22:18;;;;;;;28.60;25.70;;;19.60;99.90;;;;;;7398110;19;20044;-80
2022/08/16 01:25:12;;;;;;;28.52;25.70;;;19.60;99.90;;;;;;7396012;19;20018;-80
2022/08/16 01:27:52;;;;;;;33.70;27.77;;;19.60;99.90;;;;;;7397710;19;20007;-80
2022/08/16 01:30:32;;;;;;;34.55;30.67;;;19.60;99.90;;;;;;7397851;19;20425;-80
2022/08/16 01:33:01;;;;;;;31.85;28.55;;;19.60;99.90;;;;;;7398089;19;20011;-80
2022/08/16 01:35:56;;;;;;;32.78;29.40;;;19.60;99.90;;;;;;7396621;19;20014;-80
2022/08/16 01:38:33;;;;;;;34.30;29.58;;;19.60;99.90;;;;;;7396219;19;20374;-80
2022/08/16 01:41:03;;;;;;;36.88;31.73;;;19.50;99.90;;;;;;7395741;19;20021;-80
2022/08/16 01:43:30;;;;;;;34.17;30.63;;;19.50;99.90;;;;;;7396107;19;20011;-80
2022/08/16 01:46:00;;;;;;;33.72;30.08;;;19.50;99.90;;;;;;7397886;19;20389;-80
2022/08/16 01:48:29;;;;;;;38.72;33.78;;;19.60;99.90;;;;;;7396987;19;20014;-80
2022/08/16 01:50:55;;;;;;;35.50;31.55;;;19.50;99.90;;;;;;7397561;19;20011;-80
2022/08/16 01:53:22;;;;;;;36.10;32.22;;;19.50;99.90;;;;;;7395286;19;20504;-80
2022/08/16 01:55:49;;;;;;;39.00;34.70;;;19.50;99.90;;;;;;7395968;19;20010;-80
2022/08/16 01:58:16;;;;;;;38.83;34.65;;;19.50;99.90;;;;;;7397056;19;20421;-80
2022/08/16 02:00:43;;;;;;;37.47;33.67;;;19.50;99.90;;;;;;7397243;19;20017;-80
2022/08/16 02:03:09;;;;;;;37.67;33.65;;;19.40;99.90;;;;;;7395367;19;20011;-80
2022/08/16 02:05:35;;;;;;;41.08;34.88;;;19.40;99.90;;;;;;7396740;19;20022;-80
2022/08/16 02:08:03;;;;;;;39.58;35.15;;;19.40;99.90;;;;;;7395520;19;20015;-80
2022/08/16 02:10:29;;;;;;;36.67;32.80;;;19.40;99.90;;;;;;7397176;19;20018;-81
2022/08/16 02:12:56;;;;;;;37.80;33.83;;;19.40;99.90;;;;;;7397121;19;20484;-80
2022/08/16 02:15:26;;;;;;;39.03;33.42;;;19.40;99.90;;;;;;7396654;19;20044;-80
2022/08/16 02:17:57;;;;;;;38.95;34.65;;;19.30;99.90;;;;;;7397123;19;20042;-81
2022/08/16 02:20:25;;;;;;;41.03;35.35;;;19.30;99.90;;;;;;7396022;19;20018;-80
2022/08/16 02:22:51;;;;;;;42.85;36.13;;;19.20;99.90;;;;;;7395490;19;20015;-81
2022/08/16 02:25:17;;;;;;;40.47;34.92;;;19.20;99.90;;;;;;7395497;19;20034;-80
2022/08/16 02:27:45;;;;;;;41.78;36.63;;;19.20;99.90;;;;;;7396516;19;20404;-80
2022/08/16 02:30:15;;;;;;;41.05;36.50;;;19.20;99.90;;;;;;7396131;19;20018;-81
2022/08/16 02:32:42;;;;;;;41.20;36.72;;;19.20;99.90;;;;;;7394495;19;20015;-80
2022/08/16 02:35:09;;;;;;;42.58;37.25;;;19.20;99.90;;;;;;7393519;19;20495;-80
2022/08/16 02:37:35;;;;;;;42.58;37.90;;;19.10;99.90;;;;;;7395737;19;20003;-81
2022/08/16 02:40:01;;;;;;;42.95;36.75;;;19.10;99.90;;;;;;7396128;19;20029;-81
2022/08/16 02:42:27;;;;;;;42.88;38.20;;;19.10;99.90;;;;;;7394834;19;20409;-81
2022/08/16 02:44:52;;;;;;;46.55;38.50;;;19.00;99.90;;;;;;7396517;19;20018;-81
2022/08/16 02:47:19;;;;;;;43.72;37.92;;;19.00;99.90;;;;;;7395328;19;20358;-81
2022/08/16 02:49:45;;;;;;;44.60;38.92;;;19.00;99.90;;;;;;7394820;19;20018;-80
2022/08/16 02:52:11;;;;;;;42.50;37.88;;;19.00;99.90;;;;;;7393629;19;20018;-81
2022/08/16 02:54:40;;;;;;;44.88;38.92;;;19.00;99.90;;;;;;7395671;19;20029;-81
2022/08/16 02:57:05;;;;;;;47.53;40.15;;;19.00;99.90;;;;;;7395318;19;20022;-81
2022/08/16 02:59:31;;;;;;;49.60;43.05;;;19.00;99.90;;;;;;7395480;19;20011;-81
2022/08/16 03:01:57;;;;;;;50.75;42.55;;;19.00;99.90;;;;;;7393343;19;20316;-81
2022/08/16 03:04:23;;;;;;;47.85;42.05;;;19.00;99.90;;;;;;7393186;19;20360;-81
2022/08/16 03:06:50;;;;;;;50.75;43.03;;;19.00;99.90;;;;;;7393639;19;20014;-81
2022/08/16 03:09:16;;;;;;;55.58;46.58;;;18.90;99.90;;;;;;7394669;19;20014;-81
2022/08/16 03:11:43;;;;;;;59.80;46.10;;;18.90;99.90;;;;;;7394668;19;20514;-81
2022/08/16 03:14:10;;;;;;;52.15;45.00;;;18.80;99.90;;;;;;7394410;19;20363;-81
2022/08/16 03:16:36;;;;;;;56.60;44.35;;;18.80;99.90;;;;;;7394417;19;20439;-81
2022/08/16 03:19:02;;;;;;;52.63;45.50;;;18.80;99.90;;;;;;7394064;19;20432;-80
2022/08/16 03:21:28;;;;;;;55.13;46.63;;;18.80;99.90;;;;;;7392480;19;20391;-80
2022/08/16 03:23:54;;;;;;;57.08;47.17;;;18.90;99.90;;;;;;7389950;19;20002;-81
2022/08/16 03:26:19;;;;;;;61.47;50.47;;;18.80;99.90;;;;;;7392637;19;20010;-81
2022/08/16 03:28:45;;;;;;;56.58;46.40;;;18.80;99.90;;;;;;7394106;19;20014;-82
2022/08/16 03:31:11;;;;;;;58.75;50.92;;;18.80;99.90;;;;;;7394535;19;20018;-81
2022/08/16 03:33:38;;;;;;;58.72;51.42;;;18.80;99.90;;;;;;7393514;19;20039;-81
2022/08/16 03:36:05;;;;;;;62.70;51.40;;;18.80;99.90;;;;;;7392830;19;20019;-81
2022/08/16 03:38:32;;;;;;;60.97;51.20;;;18.90;99.90;;;;;;7393778;19;20021;-81
2022/08/16 03:40:59;;;;;;;64.45;53.40;;;18.90;99.90;;;;;;7393878;19;20045;-80
2022/08/16 03:43:26;;;;;;;62.47;53.60;;;18.90;99.90;;;;;;7393356;19;20508;-81
2022/08/16 03:45:57;;;;;;;63.50;53.20;;;18.90;99.90;;;;;;7393321;19;20035;-81
2022/08/16 03:48:27;;;;;;;67.13;54.03;;;18.90;99.90;;;;;;7393213;19;20021;-81
2022/08/16 03:50:53;;;;;;;72.47;55.53;;;18.90;99.90;;;;;;7393449;19;20385;-81
2022/08/16 03:53:19;;;;;;;65.38;55.42;;;18.90;99.90;;;;;;7393617;19;20502;-80
2022/08/16 03:55:45;;;;;;;69.07;56.65;;;18.80;99.90;;;;;;7393615;19;20011;-81
2022/08/16 03:58:11;;;;;;;66.95;55.20;;;18.80;99.90;;;;;;7393225;19;20044;-81
2022/08/16 04:00:38;;;;;;;68.70;55.20;;;18.80;99.90;;;;;;7393030;19;20383;-81
2022/08/16 04:03:07;;;;;;;63.38;54.20;;;18.80;99.90;;;;;;7392406;19;20018;-81
2022/08/16 04:05:36;;;;;;;67.25;54.67;;;18.80;99.90;;;;;;7393152;19;20010;-81
2022/08/16 04:08:04;;;;;;;66.22;53.88;;;18.70;99.90;;;;;;7393168;19;20006;-81
2022/08/16 04:10:30;;;;;;;63.10;54.28;;;18.70;99.90;;;;;;7392876;19;20018;-81
2022/08/16 04:12:57;;;;;;;58.10;50.35;;;18.70;99.90;;;;;;7393051;19;20015;-81
2022/08/16 04:15:24;;;;;;;64.55;54.97;;;18.70;99.90;;;;;;7392804;19;20015;-81
2022/08/16 04:17:53;;;;;;;63.53;53.03;;;18.80;99.90;;;;;;7391147;19;20091;-81
2022/08/16 04:20:20;;;;;;;60.78;52.65;;;18.80;99.90;;;;;;7392044;19;20010;-81
2022/08/16 04:22:46;;;;;;;61.67;50.58;;;18.70;99.90;;;;;;7390195;19;20483;-81
2022/08/16 04:25:12;;;;;;;63.33;54.30;;;18.80;99.90;;;;;;7390274;19;20035;-81
2022/08/16 04:27:39;;;;;;;66.13;55.22;;;18.70;99.90;;;;;;7392196;19;20007;-81
2022/08/16 04:30:12;;;;;;;64.80;54.53;;;18.70;99.90;;;;;;7390718;19;20018;-81
2022/08/16 04:32:38;;;;;;;;;;;18.70;99.90;;;;;;7393044;19;20006;-81
2022/08/16 04:35:06;;;;;;;63.55;54.35;;;18.70;99.90;;;;;;7392091;19;19956;-80
2022/08/16 04:37:32;;;;;;;70.82;54.75;;;18.60;99.90;;;;;;7399693;19;20011;-81
2022/08/16 04:39:58;;;;;;;64.43;54.25;;;18.70;99.90;;;;;;7398202;19;20018;-81
2022/08/16 04:42:24;;;;;;;65.63;55.92;;;18.60;99.90;;;;;;7400976;19;20086;-80
2022/08/16 04:44:50;;;;;;;62.70;55.20;;;18.60;99.90;;;;;;7397959;19;20006;-81
2022/08/16 04:47:16;;;;;;;65.93;54.72;;;18.60;99.90;;;;;;7399386;19;20010;-81
2022/08/16 04:49:43;;;;;;;62.42;54.40;;;18.60;99.90;;;;;;7399295;19;20032;-81
2022/08/16 04:52:09;;;;;;;63.53;55.72;;;18.60;99.90;;;;;;7399483;19;20011;-80
2022/08/16 04:54:35;;;;;;;61.53;53.80;;;18.60;99.90;;;;;;7399415;19;20011;-81
2022/08/16 04:57:00;;;;;;;66.32;55.28;;;18.60;99.90;;;;;;7399459;19;20014;-81
2022/08/16 04:59:26;;;;;;;62.33;53.47;;;18.70;99.90;;;;;;7399306;19;20018;-80
2022/08/16 05:01:55;;;;;;;70.28;55.83;;;18.70;99.90;;;;;;7398814;19;20369;-81
2022/08/16 05:04:23;;;;;;;62.63;54.30;;;18.70;99.90;;;;;;7396096;19;20006;-81
2022/08/16 05:06:50;;;;;;;65.32;54.42;;;18.70;99.90;;;;;;7397307;19;20014;-81
2022/08/16 05:09:17;;;;;;;65.30;54.88;;;18.60;99.90;;;;;;7397364;19;20007;-81
2022/08/16 05:11:44;;;;;;;61.42;53.05;;;18.70;99.90;;;;;;7398993;19;20351;-81
2022/08/16 05:14:11;;;;;;;67.32;54.20;;;18.70;99.90;;;;;;7398429;19;20010;-81
2022/08/16 05:16:37;;;;;;;65.78;55.40;;;18.70;99.90;;;;;;7398409;19;20010;-81
2022/08/16 05:19:05;;;;;;;65.57;55.00;;;18.80;99.90;;;;;;7396468;19;20669;-81
2022/08/16 05:21:32;;;;;;;63.80;55.45;;;18.70;99.90;;;;;;7398367;19;20046;-80
2022/08/16 05:23:58;;;;;;;58.65;51.08;;;18.80;99.90;;;;;;7396485;19;20033;-81
2022/08/16 05:26:28;;;;;;;56.40;48.95;;;18.80;99.90;;;;;;7395849;19;20483;-81
2022/08/16 05:28:55;;;;;;;53.47;47.67;;;18.90;99.90;;;;;;7397952;19;20011;-80
2022/08/16 05:31:25;;;;;;;54.65;48.42;;;18.90;99.90;;;;;;7397934;19;20504;-80
2022/08/16 05:33:51;;;;;;;53.83;44.25;;;19.00;99.90;;;;;;7396275;19;20018;-81
2022/08/16 05:36:17;;;;;;;49.63;43.42;;;19.10;99.90;;;;;;7396251;19;20022;-80
2022/08/16 05:38:42;;;;;;;49.28;43.22;;;19.10;99.90;;;;;;7397780;19;20046;-81
2022/08/16 05:41:08;;;;;;;36.83;32.80;;;19.10;99.90;;;;;;7397802;19;20010;-81
2022/08/16 05:43:34;;;;;;;45.25;40.53;;;19.20;99.90;;;;;;7395741;19;20010;-81
2022/08/16 05:46:00;;;;;;;47.25;39.35;;;19.30;99.90;;;;;;7397234;19;20003;-81
2022/08/16 05:48:26;;;;;;;43.28;38.15;;;19.30;99.90;;;;;;7394685;19;20002;-81
2022/08/16 05:50:53;;;;;;;43.55;38.40;;;19.40;99.90;;;;;;7397577;19;20081;-81
2022/08/16 05:53:19;;;;;;;42.90;38.55;;;19.40;99.90;;;;;;7397602;19;20014;-81
2022/08/16 05:55:45;;;;;;;44.70;40.00;;;19.40;99.90;;;;;;7395646;19;20010;-81
2022/08/16 05:58:11;;;;;;;46.70;40.58;;;19.40;99.90;;;;;;7396957;19;20011;-80
2022/08/16 06:00:36;;;;;;;48.05;42.90;;;19.30;99.90;;;;;;7397491;19;20010;-81
2022/08/16 06:03:02;;;;;;;46.22;41.50;;;19.30;99.90;;;;;;7396128;19;20025;-80
2022/08/16 06:05:28;;;;;;;47.17;42.25;;;19.20;99.90;;;;;;7396512;19;20021;-81
2022/08/16 06:07:54;;;;;;;44.03;39.35;;;19.20;99.90;;;;;;7396859;19;20034;-81
2022/08/16 06:10:20;;;;;;;46.63;41.63;;;19.20;99.90;;;;;;7396907;19;20017;-80
2022/08/16 06:12:46;;;;;;;40.70;36.50;;;19.20;99.90;;;;;;7396641;19;20764;-80
2022/08/16 06:15:15;;;;;;;46.17;41.30;;;19.20;99.90;;;;;;7395419;19;20482;-81
2022/08/16 06:17:42;;;;;;;46.85;41.85;;;19.20;99.90;;;;;;7396446;19;20018;-81
2022/08/16 06:20:12;;;;;;;49.55;42.63;;;19.20;99.90;;;;;;7395972;19;20009;-81
2022/08/16 06:22:38;;;;;;;47.58;41.75;;;19.20;99.90;;;;;;7394254;19;20082;-80
2022/08/16 06:25:05;;;;;;;42.97;37.38;;;19.30;99.90;;;;;;7395373;19;20015;-80
2022/08/16 06:27:30;;;;;;;50.28;43.28;;;19.40;99.90;;;;;;7396056;19;20018;-81
2022/08/16 06:30:01;;;;;;;45.72;40.80;;;19.50;99.90;;;;;;7396224;19;20014;-81
2022/08/16 06:32:26;;;;;;;49.42;42.00;;;19.60;99.90;;;;;;7394786;19;20020;-79
2022/08/16 06:34:52;;;;;;;33.67;29.13;;;19.80;99.90;;;;;;7395774;19;20014;-80
2022/08/16 06:37:18;;;;;;;38.22;34.10;;;20.00;99.90;;;;;;7395721;19;20007;-79
2022/08/16 06:39:44;;;;;;;42.97;38.25;;;20.10;99.90;;;;;;7394152;19;20024;-80
2022/08/16 06:42:10;;;;;;;36.92;32.30;;;20.30;99.90;;;;;;7395622;19;20514;-79
2022/08/16 06:44:36;;;;;;;42.50;37.97;;;20.30;99.90;;;;;;7395480;19;20494;-80
2022/08/16 06:47:02;;;;;;;40.00;35.67;;;20.40;99.90;;;;;;7395252;19;20018;-80
2022/08/16 06:49:27;;;;;;;45.08;38.13;;;20.40;99.90;;;;;;7393778;19;20488;-80
2022/08/16 06:51:54;;;;;;;40.50;36.00;;;20.40;99.90;;;;;;7395506;19;20040;-80
2022/08/16 06:54:20;;;;;;;42.63;36.47;;;20.50;99.90;;;;;;7393481;19;20401;-80
2022/08/16 06:56:46;;;;;;;40.05;33.67;;;20.60;99.90;;;;;;7393624;19;20498;-80
2022/08/16 06:59:12;;;;;;;41.10;35.38;;;20.60;99.90;;;;;;7393234;19;20027;-80
2022/08/16 07:01:38;;;;;;;40.40;36.10;;;20.60;99.90;;;;;;7394817;19;20026;-79
2022/08/16 07:04:04;;;;;;;23.02;20.20;;;20.70;99.90;;;;;;7393364;19;20074;-79
2022/08/16 07:06:32;;;;;;;24.58;22.15;;;20.90;99.90;;;;;;7393552;19;20476;-80
2022/08/16 07:08:59;;;;;;;19.10;17.08;;;21.40;99.90;;;;;;7394841;19;20359;-79
2022/08/16 07:11:25;;;;;;;22.70;20.25;;;22.30;99.90;;;;;;7393138;19;20038;-79
2022/08/16 07:13:51;;;;;;;32.75;28.63;;;23.10;99.90;;;;;;7393376;19;20014;-80
2022/08/16 07:16:18;;;;;;;26.02;23.10;;;23.00;99.90;;;;;;7394336;19;20018;-79
2022/08/16 07:18:44;;;;;;;28.30;25.52;;;22.90;99.90;;;;;;7395486;19;20018;-79
2022/08/16 07:21:12;;;;;;;30.10;26.70;;;22.80;99.90;;;;;;7394607;19;20021;-80
2022/08/16 07:23:39;;;;;;;19.73;17.50;;;22.80;99.90;;;;;;7391738;19;20015;-79
2022/08/16 07:26:10;;;;;;;21.25;17.42;;;23.00;99.90;;;;;;7392934;19;20010;-78
2022/08/16 07:28:36;;;;;;;31.70;25.05;;;23.20;99.90;;;;;;7394121;19;20495;-79
2022/08/16 07:31:03;;;;;;;20.63;18.45;;;23.80;99.90;;;;;;7392396;19;20354;-79
2022/08/16 07:33:33;;;;;;;18.85;17.00;;;24.20;99.90;;;;;;7393932;19;20726;-79
2022/08/16 07:36:00;;;;;;;19.13;17.27;;;25.00;99.90;;;;;;7392822;19;20515;-79
2022/08/16 07:38:26;;;;;;;26.17;23.45;;;25.60;99.90;;;;;;7393960;19;20007;-79
2022/08/16 07:40:56;;;;;;;11.07;9.45;;;26.40;99.90;;;;;;7394635;19;20411;-80
2022/08/16 07:43:23;;;;;;;18.92;16.92;;;26.60;99.90;;;;;;7393048;19;20413;-79
2022/08/16 07:45:50;;;;;;;27.05;24.08;;;27.20;99.90;;;;;;7393849;19;20515;-80
2022/08/16 07:48:16;;;;;;;22.23;19.50;;;27.40;99.90;;;;;;7391897;19;20017;-79
2022/08/16 07:50:43;;;;;;;19.38;16.90;;;27.60;99.90;;;;;;7391466;19;20015;-79
2022/08/16 07:53:10;;;;;;;24.40;22.00;;;27.80;99.90;;;;;;7393227;19;20021;-78
2022/08/16 07:55:36;;;;;;;24.48;21.98;;;27.80;99.90;;;;;;7391986;19;20014;-79
2022/08/16 07:58:03;;;;;;;21.02;17.45;;;27.60;99.90;;;;;;7391882;19;20031;-79
2022/08/16 08:00:30;;;;;;;16.45;14.82;;;27.50;99.90;;;;;;7393106;19;20011;-79
2022/08/16 08:02:55;;;;;;;25.35;21.75;;;27.30;99.90;;;;;;7391068;19;20042;-78
2022/08/16 08:05:22;;;;;;;25.00;22.30;;;27.40;99.90;;;;;;7391408;19;20010;-79
2022/08/16 08:07:49;;;;;;;25.15;22.65;;;27.40;99.90;;;;;;7391998;19;20015;-79
2022/08/16 08:10:15;;;;;;;19.08;17.08;;;27.40;99.90;;;;;;7392962;19;20468;-79
2022/08/16 08:12:42;;;;;;;20.85;17.90;;;27.20;99.90;;;;;;7391346;19;20601;-79
2022/08/16 08:15:10;;;;;;;15.10;13.52;;;27.20;99.90;;;;;;7393277;19;20030;-78
2022/08/16 08:17:38;;;;;;;9.27;8.43;;;27.20;99.90;;;;;;7393066;19;20010;-79
2022/08/16 08:20:06;;;;;;;10.13;9.20;;;27.40;99.90;;;;;;7392352;19;20049;-79
2022/08/16 08:22:33;;;;;;;20.20;17.60;;;27.70;99.90;;;;;;7392308;19;20037;-79
2022/08/16 08:24:59;;;;;;;15.70;14.07;;;27.50;99.90;;;;;;7391829;19;20025;-79
2022/08/16 08:27:25;;;;;;;15.38;13.85;;;27.50;99.90;;;;;;7392831;19;20006;-79
2022/08/16 08:29:51;;;;;;;19.23;17.20;;;27.70;99.90;;;;;;7392743;19;20010;-79
2022/08/16 08:32:20;;;;;;;14.18;12.77;;;27.80;99.90;;;;;;7392613;19;20018;-79
2022/08/16 08:34:48;;;;;;;14.55;13.13;;;27.70;99.90;;;;;;7390529;19;20035;-79
2022/08/16 08:37:14;;;;;;;19.58;14.23;;;27.70;99.90;;;;;;7390900;19;20442;-79
2022/08/16 08:39:40;;;;;;;17.85;15.98;;;27.40;99.90;;;;;;7392062;19;20011;-79
2022/08/16 08:42:07;;;;;;;18.35;14.90;;;27.10;99.90;;;;;;7392481;19;20097;-78
2022/08/16 08:44:34;;;;;;;10.93;9.82;;;26.90;99.90;;;;;;7389851;19;20578;-79
2022/08/16 08:47:04;;;;;;;16.08;14.13;;;26.70;99.90;;;;;;7391884;19;20017;-78
2022/08/16 08:49:30;;;;;;;8.27;7.47;;;26.60;99.90;;;;;;7391605;19;20014;-78
2022/08/16 08:51:57;;;;;;;8.18;7.38;;;26.60;99.90;;;;;;7390307;19;20007;-79
2022/08/16 08:54:25;;;;;;;12.40;11.18;;;26.50;99.90;;;;;;7389947;19;20074;-78
2022/08/16 08:56:52;;;;;;;10.68;8.95;;;26.50;99.90;;;;;;7392018;19;20351;-79
2022/08/16 08:59:18;;;;;;;15.93;14.30;;;26.50;99.90;;;;;;7390083;19;20075;-79
2022/08/16 09:01:46;;;;;;;13.95;12.45;;;26.60;99.90;;;;;;7390611;19;20010;-80
2022/08/16 09:04:12;;;;;;;9.35;8.20;;;26.60;99.90;;;;;;7389544;19;20014;-79
2022/08/16 09:06:38;;;;;;;10.18;9.18;;;26.60;99.90;;;;;;7391798;19;20011;-79
2022/08/16 09:09:05;;;;;;;11.18;9.60;;;26.70;99.90;;;;;;7391580;19;20519;-80
2022/08/16 09:11:33;;;;;;;13.55;12.25;;;26.80;99.90;;;;;;7391566;19;20022;-79
2022/08/16 09:13:59;;;;;;;9.88;7.47;;;26.90;99.90;;;;;;7391291;19;20018;-79
2022/08/16 09:16:25;;;;;;;13.95;12.18;;;27.00;99.90;;;;;;7391019;19;20733;-79
2022/08/16 09:18:51;;;;;;;7.53;6.82;;;27.00;99.90;;;;;;7390500;19;20015;-80
2022/08/16 09:21:17;;;;;;;13.73;11.48;;;27.00;99.90;;;;;;7391095;19;20021;-80
2022/08/16 09:23:44;;;;;;;10.68;9.55;;;27.00;99.90;;;;;;7396976;19;20027;-80
2022/08/16 09:26:14;;;;;;;14.50;12.35;;;27.00;99.90;;;;;;7396575;19;20010;-80
2022/08/16 09:28:42;;;;;;;13.27;11.50;;;27.10;99.90;;;;;;7396645;19;20015;-79
2022/08/16 09:31:08;;;;;;;15.90;11.35;;;27.10;99.90;;;;;;7398405;19;20461;-80
2022/08/16 09:33:34;;;;;;;8.77;7.97;;;27.20;99.90;;;;;;7397920;19;20011;-80
2022/08/16 09:36:00;;;;;;;13.73;10.48;;;27.20;99.90;;;;;;7396344;19;20018;-80
2022/08/16 09:38:26;;;;;;;9.55;7.55;;;27.20;99.90;;;;;;7396098;19;20038;-80
2022/08/16 09:40:52;;;;;;;11.85;9.57;;;27.30;99.90;;;;;;7400583;19;20014;-80
2022/08/16 09:43:20;;;;;;;9.18;8.23;;;27.40;99.90;;;;;;7396769;19;20006;-79
2022/08/16 09:45:46;;;;;;;10.60;9.52;;;27.50;99.90;;;;;;7397631;19;20014;-80
2022/08/16 09:48:14;;;;;;;9.25;8.32;;;27.50;99.90;;;;;;7397183;19;20090;-80
2022/08/16 09:50:42;;;;;;;9.07;7.13;;;27.60;99.90;;;;;;7397454;19;20010;-80
2022/08/16 09:53:15;;;;;;;10.45;6.97;;;27.70;99.90;;;;;;7396178;19;20010;-79
2022/08/16 09:55:45;;;;;;;8.63;6.82;;;27.80;99.90;;;;;;7397357;19;20012;-79
2022/08/16 09:58:11;;;;;;;9.45;8.50;;;27.80;99.90;;;;;;7397583;19;20693;-80
2022/08/16 10:00:37;;;;;;;11.10;8.02;;;27.90;99.90;;;;;;7397429;19;20364;-80
2022/08/16 10:03:04;;;;;;;7.50;6.80;;;27.90;99.90;;;;;;7396022;19;20010;-79
2022/08/16 10:05:34;;;;;;;10.32;8.13;;;28.10;99.90;;;;;;7395537;19;20216;-79
2022/08/16 10:08:00;;;;;;;7.32;6.63;;;28.00;99.90;;;;;;7397313;19;20011;-79
2022/08/16 10:10:26;;;;;;;8.35;6.80;;;28.10;99.90;;;;;;7396806;19;20014;-79
2022/08/16 10:15:38;;;;;;;7.47;6.30;;;28.10;99.90;;;;;;7396719;19;20035;-80
2022/08/16 10:18:08;;;;;;;7.45;6.30;;;28.30;99.90;;;;;;7395053;19;20086;-80
2022/08/16 10:20:37;;;;;;;6.28;5.68;;;28.30;99.90;;;;;;7394934;19;20017;-80
2022/08/16 10:23:05;;;;;;;8.43;7.57;;;28.40;99.90;;;;;;7395708;19;20029;-80
2022/08/16 10:25:31;;;;;;;7.78;6.97;;;28.50;99.90;;;;;;7395748;19;20014;-79
2022/08/16 10:27:59;;;;;;;6.68;5.68;;;28.50;99.90;;;;;;7394542;19;20364;-80
2022/08/16 10:30:25;;;;;;;10.25;7.05;;;28.50;99.90;;;;;;7396116;19;20035;-80
2022/08/16 10:32:51;;;;;;;7.70;7.00;;;28.60;99.90;;;;;;7394322;19;20070;-80
2022/08/16 10:35:17;;;;;;;6.80;5.60;;;28.60;99.70;;;;;;7394044;19;20466;-80
2022/08/16 10:37:43;;;;;;;7.22;6.13;;;28.60;99.80;;;;;;7395874;19;20007;-80
2022/08/16 10:40:10;;;;;;;9.88;5.88;;;28.70;99.70;;;;;;7395478;19;20015;-80
2022/08/16 10:42:36;;;;;;;6.80;6.07;;;28.80;99.60;;;;;;7395228;19;20014;-80
2022/08/16 10:45:03;;;;;;;7.60;6.38;;;28.70;99.10;;;;;;7394084;19;20044;-79
2022/08/16 10:47:29;;;;;;;6.55;5.88;;;28.70;99.10;;;;;;7395814;19;20029;-79
2022/08/16 10:49:58;;;;;;;5.70;5.28;;;28.80;99.20;;;;;;7395209;19;20494;-80
2022/08/16 10:52:24;;;;;;;6.80;5.95;;;28.80;98.80;;;;;;7393820;19;20006;-79
2022/08/16 10:54:50;;;;;;;8.00;5.88;;;29.00;99.00;;;;;;7395196;19;20010;-79
2022/08/16 10:57:17;;;;;;;7.93;6.57;;;29.00;98.60;;;;;;7395501;19;20030;-80
2022/08/16 10:59:42;;;;;;;6.53;5.40;;;29.10;98.50;;;;;;7395298;19;20539;-80
2022/08/16 11:02:09;;;;;;;6.30;5.70;;;29.10;98.60;;;;;;7395427;19;20014;-79
2022/08/16 11:04:36;;;;;;;6.28;5.40;;;29.00;98.60;;;;;;7392087;19;20025;-80
2022/08/16 11:07:03;;;;;;;7.05;6.30;;;29.10;98.60;;;;;;7395112;19;20014;-80
2022/08/16 11:09:30;;;;;;;8.02;7.20;;;29.10;98.10;;;;;;7394821;19;20054;-80
2022/08/16 11:11:56;;;;;;;6.63;5.93;;;29.10;97.90;;;;;;7393432;19;20010;-80
2022/08/16 11:14:23;;;;;;;6.38;5.78;;;29.30;97.90;;;;;;7394823;19;20026;-80
2022/08/16 11:16:49;;;;;;;7.70;6.13;;;29.20;97.60;;;;;;7392870;19;20018;-80
2022/08/16 11:19:15;;;;;;;6.47;5.63;;;29.00;97.40;;;;;;7392908;19;20027;-80
2022/08/16 11:21:42;;;;;;;6.18;5.57;;;29.00;98.00;;;;;;7393009;19;20007;-79
2022/08/16 11:24:08;;;;;;;6.97;5.20;;;29.10;98.20;;;;;;7392940;19;20021;-79
2022/08/16 11:26:34;;;;;;;5.43;4.72;;;29.10;97.30;;;;;;7391035;19;20010;-79
2022/08/16 11:29:01;;;;;;;9.18;4.90;;;29.10;96.70;;;;;;7392811;19;20023;-79
2022/08/16 11:31:26;;;;;;;5.35;4.95;;;29.20;96.80;;;;;;7394040;19;20506;-79
2022/08/16 11:33:52;;;;;;;6.47;5.18;;;29.20;97.30;;;;;;7393930;19;20070;-79
2022/08/16 11:36:18;;;;;;;5.05;4.65;;;29.20;96.90;;;;;;7393417;19;20025;-80
2022/08/16 11:38:45;;;;;;;5.28;4.78;;;29.20;97.00;;;;;;7393699;19;20022;-79
2022/08/16 11:41:11;;;;;;;8.65;4.72;;;29.20;95.80;;;;;;7397060;19;20029;-80
2022/08/16 11:43:45;;;;;;;5.45;4.72;;;29.30;96.00;;;;;;7392883;19;20360;-79
2022/08/16 11:46:14;;;;;;;5.30;4.80;;;29.40;96.30;;;;;;7392622;19;20013;-79
2022/08/16 11:48:39;;;;;;;5.90;4.78;;;29.30;96.30;;;;;;7393341;19;20011;-80
2022/08/16 11:51:05;;;;;;;5.45;4.55;;;29.30;96.30;;;;;;7393389;19;20011;-80
2022/08/16 11:53:32;;;;;;;5.07;4.47;;;29.30;95.70;;;;;;7393342;19;20097;-80
2022/08/16 11:55:58;;;;;;;4.97;4.28;;;29.20;95.30;;;;;;7393244;19;20409;-80
2022/08/16 11:58:27;;;;;;;5.10;4.60;;;29.20;96.00;;;;;;7393278;19;20488;-80
2022/08/16 12:00:55;;;;;;;5.00;4.40;;;29.20;95.80;;;;;;7391955;19;20018;-80
2022/08/16 12:03:23;;;;;;;4.47;4.07;;;29.20;96.00;;;;;;7390605;19;20019;-80
2022/08/16 12:05:49;;;;;;;4.70;4.30;;;29.10;95.90;;;;;;7392892;19;20498;-80
2022/08/16 12:08:15;;;;;;;5.10;4.50;;;29.20;95.90;;;;;;7393329;19;20022;-80
2022/08/16 12:10:41;;;;;;;5.40;4.10;;;29.20;95.60;;;;;;7393123;19;20014;-80
2022/08/16 12:13:08;;;;;;;6.25;4.45;;;29.20;94.80;;;;;;7393231;19;20027;-80
2022/08/16 12:15:35;;;;;;;6.70;4.65;;;29.20;94.90;;;;;;7392789;19;20014;-79
2022/08/16 12:18:01;;;;;;;8.15;4.63;;;29.20;95.20;;;;;;7391169;19;20015;-81
2022/08/16 12:20:31;;;;;;;4.45;4.15;;;29.30;94.50;;;;;;7390737;19;20011;-80
2022/08/16 12:22:57;;;;;;;6.97;4.65;;;29.40;95.00;;;;;;7392336;19;20070;-80
2022/08/16 12:25:27;;;;;;;4.68;4.10;;;29.50;94.90;;;;;;7390533;19;20409;-80
2022/08/16 12:27:54;;;;;;;4.38;4.03;;;29.50;94.80;;;;;;7392709;19;20014;-79
2022/08/16 12:30:24;;;;;;;5.72;4.30;;;29.50;94.90;;;;;;7391001;19;20006;-80
2022/08/16 12:32:50;;;;;;;4.90;4.45;;;29.40;94.80;;;;;;7392594;19;20015;-80
2022/08/16 12:35:19;;;;;;;7.68;4.15;;;29.30;94.20;;;;;;7391755;19;20082;-80
2022/08/16 12:37:46;;;;;;;4.53;4.13;;;29.30;94.50;;;;;;7392371;19;20117;-80
2022/08/16 12:40:19;;;;;;;4.68;4.28;;;29.40;94.70;;;;;;7392232;19;20624;-80
2022/08/16 12:42:48;;;;;;;4.78;4.35;;;29.30;94.50;;;;;;7391864;19;20022;-80